Time;durP1;ratioP1;P1;durP2;ratioP2;P2;SDS_P1;SDS_P2;PMS_P1;PMS_P2;Temp;Humidity;BMP_temperature;BMP_pressure;BME280_temperature;BME280_humidity;BME280_pressure;Samples;Min_cycle;Max_cycle;Signal;HPM_P1;HPM_P2
2021/05/08 00:00:28;;;;;;;12.93;7.83;;;;;;;4.27;93.19;96334.72;1052708;28;20028;-67
2021/05/08 00:00:58;;;;;;;12.00;7.73;;;;;;;4.29;93.01;96329.22;1053056;28;20065;-67
2021/05/08 00:01:28;;;;;;;14.40;7.23;;;;;;;4.32;93.15;96339.34;1052585;28;20016;-66
2021/05/08 00:01:59;;;;;;;12.63;7.70;;;;;;;4.30;93.12;96339.59;1052733;28;20075;-67
2021/05/08 00:02:30;;;;;;;13.53;8.53;;;;;;;4.26;93.18;96338.41;1052368;28;20016;-66
2021/05/08 00:03:00;;;;;;;14.57;8.47;;;;;;;4.25;92.98;96343.91;1052645;28;20024;-66
2021/05/08 00:03:31;;;;;;;12.03;7.83;;;;;;;4.25;93.06;96338.59;1052981;28;20136;-66
2021/05/08 00:04:01;;;;;;;15.80;8.53;;;;;;;4.28;92.86;96335.53;1053048;28;20530;-66
2021/05/08 00:04:32;;;;;;;12.93;8.30;;;;;;;4.26;92.64;96333.13;1052602;28;20153;-67
2021/05/08 00:05:03;;;;;;;13.07;8.20;;;;;;;4.26;92.90;96330.47;1052710;28;20035;-66
2021/05/08 00:05:34;;;;;;;13.20;7.95;;;;;;;4.26;92.64;96332.31;1052534;28;20028;-66
2021/05/08 00:06:07;;;;;;;14.53;7.90;;;;;;;4.29;93.01;96334.50;1052585;28;20470;-67
2021/05/08 00:06:38;;;;;;;13.40;8.20;;;;;;;4.22;93.13;96339.88;1052858;28;20024;-66
2021/05/08 00:07:08;;;;;;;11.47;7.60;;;;;;;4.21;92.97;96337.47;1054041;28;20035;-67
2021/05/08 00:07:39;;;;;;;12.67;7.53;;;;;;;4.25;93.41;96341.25;1053922;28;20465;-67
2021/05/08 00:08:09;;;;;;;14.20;8.03;;;;;;;4.25;93.03;96341.25;1053043;28;20024;-67
2021/05/08 00:08:39;;;;;;;11.70;7.90;;;;;;;4.21;92.93;96332.97;1053046;28;20046;-67
2021/05/08 00:09:10;;;;;;;11.57;7.90;;;;;;;4.21;93.47;96332.16;1052991;28;20361;-66
2021/05/08 00:09:40;;;;;;;13.63;8.43;;;;;;;4.22;93.21;96336.44;1053015;28;20055;-67
2021/05/08 00:10:12;;;;;;;11.83;7.50;;;;;;;4.20;93.10;96335.81;1052969;28;20381;-66
2021/05/08 00:10:43;;;;;;;11.82;8.30;;;;;;;4.17;93.24;96329.16;1052910;28;20031;-66
2021/05/08 00:11:13;;;;;;;11.87;7.67;;;;;;;4.12;93.91;96331.66;1052866;28;20433;-67
2021/05/08 00:11:44;;;;;;;12.20;8.17;;;;;;;4.12;93.81;96337.75;1052936;28;20023;-66
2021/05/08 00:12:14;;;;;;;13.50;8.00;;;;;;;4.12;93.79;96335.09;1052964;28;20027;-66
2021/05/08 00:12:45;;;;;;;13.83;7.40;;;;;;;4.09;93.73;96342.66;1053028;28;20016;-66
2021/05/08 00:13:15;;;;;;;14.23;7.37;;;;;;;4.07;93.90;96342.88;1052880;28;20020;-66
2021/05/08 00:13:45;;;;;;;13.40;7.33;;;;;;;4.07;93.90;96334.94;1052930;28;20020;-66
2021/05/08 00:14:16;;;;;;;12.00;7.50;;;;;;;4.10;93.92;96334.53;1052987;28;20022;-66
2021/05/08 00:14:46;;;;;;;13.33;7.70;;;;;;;4.14;94.13;96330.38;1053014;28;20016;-67
2021/05/08 00:15:17;;;;;;;13.00;7.83;;;;;;;4.14;94.65;96334.88;1052963;28;20024;-66
2021/05/08 00:15:47;;;;;;;14.40;8.10;;;;;;;4.12;94.17;96340.38;1052936;28;20385;-67
2021/05/08 00:16:18;;;;;;;11.47;7.53;;;;;;;4.10;93.94;96334.53;1052648;28;20398;-66
2021/05/08 00:16:48;;;;;;;11.67;7.37;;;;;;;4.09;94.23;96335.53;1052860;28;20012;-66
2021/05/08 00:17:18;;;;;;;12.10;7.90;;;;;;;4.12;94.29;96336.94;1052816;28;20020;-67
2021/05/08 00:17:49;;;;;;;13.27;7.60;;;;;;;4.08;94.05;96335.75;1052913;28;20028;-67
2021/05/08 00:18:19;;;;;;;10.93;7.07;;;;;;;4.07;94.28;96328.84;1052976;28;20096;-66
2021/05/08 00:18:50;;;;;;;12.53;8.27;;;;;;;4.08;94.15;96331.28;1052905;28;20443;-67
2021/05/08 00:19:21;;;;;;;14.43;8.37;;;;;;;4.13;94.25;96333.25;1052883;28;20144;-66
2021/05/08 00:19:51;;;;;;;11.57;7.65;;;;;;;4.10;94.05;96334.53;1052563;28;20016;-67
2021/05/08 00:20:22;;;;;;;12.47;7.97;;;;;;;4.04;93.56;96330.09;1052589;28;20026;-67
2021/05/08 00:20:52;;;;;;;14.40;7.73;;;;;;;4.05;93.39;96337.03;1044239;28;20023;-66
2021/05/08 00:21:23;;;;;;;11.37;7.67;;;;;;;4.00;93.29;96333.41;1044433;28;20017;-66
2021/05/08 00:21:53;;;;;;;12.00;8.47;;;;;;;3.99;93.78;96334.41;1048467;28;20488;-66
2021/05/08 00:22:23;;;;;;;11.57;7.83;;;;;;;3.96;93.52;96340.97;1048413;28;20027;-66
2021/05/08 00:22:54;;;;;;;14.03;8.40;;;;;;;3.97;93.68;96328.56;1052339;28;20015;-67
2021/05/08 00:23:26;;;;;;;15.10;8.67;;;;;;;3.99;93.48;96329.13;1052462;28;20015;-67
2021/05/08 00:23:56;;;;;;;12.63;8.57;;;;;;;4.01;93.55;96335.03;1052457;28;20496;-66
2021/05/08 00:24:27;;;;;;;13.07;8.03;;;;;;;4.01;93.59;96329.75;1052479;28;20020;-66
2021/05/08 00:24:57;;;;;;;12.97;7.90;;;;;;;3.96;93.60;96327.75;1052833;28;20020;-66
2021/05/08 00:25:28;;;;;;;13.53;8.00;;;;;;;4.00;93.82;96328.94;1052991;28;20020;-67
2021/05/08 00:25:58;;;;;;;13.50;8.30;;;;;;;4.01;93.70;96332.38;1052830;28;20012;-67
2021/05/08 00:26:29;;;;;;;13.20;8.07;;;;;;;3.98;93.84;96330.16;1052861;28;20148;-68
2021/05/08 00:26:59;;;;;;;12.37;8.27;;;;;;;4.01;93.61;96335.03;1052855;28;20373;-66
2021/05/08 00:27:29;;;;;;;13.90;7.77;;;;;;;3.91;94.00;96330.25;1052928;28;20016;-67
2021/05/08 00:28:00;;;;;;;11.87;7.73;;;;;;;3.97;93.86;96323.28;1052918;28;20016;-67
2021/05/08 00:28:30;;;;;;;12.77;7.47;;;;;;;3.98;94.11;96328.34;1052865;28;20024;-66
2021/05/08 00:29:01;;;;;;;11.03;8.33;;;;;;;3.97;93.77;96331.19;1052818;28;20024;-66
2021/05/08 00:29:31;;;;;;;12.90;7.47;;;;;;;4.01;94.31;96335.84;1052908;28;20016;-66
2021/05/08 00:30:03;;;;;;;12.27;7.53;;;;;;;4.00;93.80;96334.22;1052880;28;20046;-66
2021/05/08 00:30:34;;;;;;;10.98;7.43;;;;;;;4.01;94.06;96332.38;1052443;28;20028;-66
2021/05/08 00:31:04;;;;;;;12.35;7.07;;;;;;;4.03;94.14;96330.31;1052561;28;20107;-66
2021/05/08 00:31:35;;;;;;;11.03;7.50;;;;;;;4.03;94.04;96335.59;1052562;28;20362;-67
2021/05/08 00:32:05;;;;;;;13.63;7.77;;;;;;;4.00;94.05;96323.66;1052295;28;20489;-66
2021/05/08 00:32:36;;;;;;;11.83;7.63;;;;;;;4.00;94.08;96328.94;1052813;28;20027;-66
2021/05/08 00:33:06;;;;;;;10.33;7.00;;;;;;;4.02;94.62;96331.34;1052707;28;20027;-66
2021/05/08 00:33:36;;;;;;;10.97;7.17;;;;;;;4.00;95.00;96331.56;1056755;28;20036;-66
2021/05/08 00:34:07;;;;;;;10.43;7.30;;;;;;;4.00;94.85;96328.94;1056659;28;20042;-66
2021/05/08 00:34:37;;;;;;;13.73;7.70;;;;;;;3.97;94.92;96325.91;1056769;28;20172;-66
2021/05/08 00:35:08;;;;;;;13.13;7.70;;;;;;;3.92;95.51;96322.09;1056730;28;20027;-66
2021/05/08 00:35:38;;;;;;;14.37;8.20;;;;;;;3.85;94.77;96320.56;1052886;28;20107;-64
2021/05/08 00:36:09;;;;;;;14.23;8.50;;;;;;;3.77;95.43;96329.56;1052899;28;20024;-63
2021/05/08 00:36:39;;;;;;;12.07;8.50;;;;;;;3.70;95.69;96328.81;1052789;28;20040;-62
2021/05/08 00:37:10;;;;;;;11.33;7.90;;;;;;;3.63;95.64;96328.06;1056754;28;20024;-62
2021/05/08 00:37:40;;;;;;;12.93;8.60;;;;;;;3.59;95.88;96335.66;1056771;28;20027;-62
2021/05/08 00:38:11;;;;;;;15.73;8.63;;;;;;;3.61;96.42;96330.13;1056764;28;20024;-62
2021/05/08 00:38:41;;;;;;;13.17;7.83;;;;;;;3.60;96.41;96321.41;1056672;28;20116;-63
2021/05/08 00:39:12;;;;;;;14.33;8.17;;;;;;;3.61;96.73;96330.94;1052840;28;20012;-62
2021/05/08 00:39:43;;;;;;;12.73;8.17;;;;;;;3.64;96.29;96329.72;1052920;28;20238;-63
2021/05/08 00:40:13;;;;;;;16.98;8.50;;;;;;;3.64;96.59;96329.72;1052752;28;20065;-62
2021/05/08 00:40:44;;;;;;;13.63;8.30;;;;;;;3.67;96.69;96328.44;1052832;28;20465;-62
2021/05/08 00:41:14;;;;;;;15.10;8.50;;;;;;;3.71;96.81;96327.00;1052786;28;20008;-62
2021/05/08 00:41:45;;;;;;;12.33;8.93;;;;;;;3.71;96.91;96325.16;1052867;28;20112;-62
2021/05/08 00:42:15;;;;;;;14.70;9.33;;;;;;;3.73;96.66;96325.72;1052785;28;20020;-62
2021/05/08 00:42:46;;;;;;;11.57;8.20;;;;;;;3.75;95.87;96325.53;1052858;28;20012;-62
2021/05/08 00:43:16;;;;;;;12.33;8.53;;;;;;;3.74;95.92;96323.91;1052568;28;20101;-62
2021/05/08 00:43:56;;;;;;;10.40;8.03;;;;;;;3.73;95.89;96327.56;1052793;28;20031;-62
2021/05/08 00:44:26;;;;;;;13.73;8.13;;;;;;;3.73;95.49;96324.94;1052563;28;20016;-62
2021/05/08 00:44:57;;;;;;;12.87;8.80;;;;;;;3.73;95.34;96317.81;1052436;28;20028;-62
2021/05/08 00:45:27;;;;;;;12.33;8.40;;;;;;;3.69;95.19;96319.28;1048198;28;20016;-62
2021/05/08 00:45:58;;;;;;;12.87;8.30;;;;;;;3.70;95.49;96326.19;1048798;28;20044;-62
2021/05/08 00:46:28;;;;;;;11.80;8.10;;;;;;;3.67;95.24;96315.22;1052273;28;20040;-62
2021/05/08 00:46:58;;;;;;;15.03;8.47;;;;;;;3.65;95.39;96323.38;1048292;28;20043;-62
2021/05/08 00:47:29;;;;;;;13.00;8.40;;;;;;;3.63;95.83;96325.41;1052472;28;20020;-62
2021/05/08 00:48:04;;;;;;;15.77;7.87;;;;;;;3.67;96.04;96315.22;1048410;28;20177;-62
2021/05/08 00:48:35;;;;;;;12.60;8.20;;;;;;;3.72;96.40;96318.03;1044842;28;20017;-62
2021/05/08 00:49:06;;;;;;;14.10;8.87;;;;;;;3.77;96.58;96318.19;1044175;28;20032;-62
2021/05/08 00:49:38;;;;;;;13.60;8.82;;;;;;;3.80;95.89;96315.13;1044763;28;20359;-62
2021/05/08 00:50:09;;;;;;;13.07;8.60;;;;;;;3.81;95.71;96328.09;1048371;28;20497;-62
2021/05/08 00:50:39;;;;;;;13.13;8.65;;;;;;;3.80;95.58;96318.56;1045071;28;20021;-62
2021/05/08 00:51:10;;;;;;;17.27;8.70;;;;;;;3.77;96.09;96323.47;1052489;28;20113;-62
2021/05/08 00:51:40;;;;;;;13.73;8.33;;;;;;;3.78;96.28;96322.44;1052395;28;20020;-62
2021/05/08 00:52:12;;;;;;;11.60;7.83;;;;;;;3.75;96.00;96331.63;1052418;28;20472;-62
2021/05/08 00:52:42;;;;;;;11.18;8.15;;;;;;;3.75;96.01;96320.25;1052365;28;20417;-64
2021/05/08 00:53:13;;;;;;;19.50;8.60;;;;;;;3.72;96.10;96318.84;1052360;28;20141;-62
2021/05/08 00:53:43;;;;;;;12.33;7.67;;;;;;;3.76;96.19;96325.31;1052448;28;20447;-62
2021/05/08 00:54:14;;;;;;;13.10;7.97;;;;;;;3.77;96.16;96323.47;1052651;28;20476;-63
2021/05/08 00:54:44;;;;;;;12.17;8.13;;;;;;;3.75;96.11;96318.41;1052679;28;20017;-62
2021/05/08 00:55:15;;;;;;;12.73;8.30;;;;;;;3.76;96.14;96320.03;1052589;28;20024;-62
2021/05/08 00:55:45;;;;;;;12.70;8.43;;;;;;;3.76;96.75;96322.66;1052678;28;20125;-62
2021/05/08 00:56:16;;;;;;;12.93;8.53;;;;;;;3.74;96.23;96326.56;1052797;28;20024;-62
2021/05/08 00:56:47;;;;;;;12.27;8.40;;;;;;;3.77;96.54;96323.47;1052729;28;20027;-62
2021/05/08 00:57:17;;;;;;;14.57;8.27;;;;;;;3.78;96.78;96328.53;1052459;28;20059;-62
2021/05/08 00:57:48;;;;;;;13.67;8.43;;;;;;;3.77;95.72;96323.47;1052467;28;20031;-62
2021/05/08 00:58:18;;;;;;;12.73;7.73;;;;;;;3.83;95.94;96317.31;1048312;28;20031;-62
2021/05/08 00:58:49;;;;;;;14.70;8.37;;;;;;;3.79;96.17;96318.78;1048343;28;20100;-62
2021/05/08 00:59:19;;;;;;;16.33;8.33;;;;;;;3.78;96.20;96320.59;1048282;28;20418;-62
2021/05/08 00:59:50;;;;;;;12.07;8.33;;;;;;;3.78;95.67;96317.16;1040115;28;20130;-62
2021/05/08 01:00:21;;;;;;;12.43;8.03;;;;;;;3.80;95.94;96329.13;1044169;28;20032;-62
2021/05/08 01:00:53;;;;;;;12.98;8.05;;;;;;;3.76;96.43;96321.84;1044364;28;20029;-62
2021/05/08 01:01:23;;;;;;;13.93;8.07;;;;;;;3.72;96.21;96318.84;1048410;28;20115;-62
2021/05/08 01:01:54;;;;;;;12.47;8.63;;;;;;;3.73;96.64;96319.63;1052569;28;20028;-62
2021/05/08 01:02:24;;;;;;;13.30;8.10;;;;;;;3.76;96.17;96317.38;1052385;28;20012;-62
2021/05/08 01:02:55;;;;;;;11.07;7.43;;;;;;;3.76;95.69;96314.72;1052415;28;20094;-62
2021/05/08 01:03:26;;;;;;;11.30;7.57;;;;;;;3.72;95.55;96315.38;1052458;28;20035;-63
2021/05/08 01:03:56;;;;;;;13.50;8.33;;;;;;;3.77;95.59;96318.19;1052269;28;20353;-62
2021/05/08 01:04:26;;;;;;;10.97;7.37;;;;;;;3.76;95.21;96317.38;1052746;28;20012;-62
2021/05/08 01:04:57;;;;;;;11.93;7.40;;;;;;;3.72;95.29;96313.53;1052707;28;20437;-62
2021/05/08 01:05:32;;;;;;;12.63;7.60;;;;;;;3.72;95.33;96315.38;1052758;28;20035;-62
2021/05/08 01:06:02;;;;;;;12.05;7.50;;;;;;;3.71;95.55;96321.72;1052681;28;20500;-62
2021/05/08 01:06:33;;;;;;;13.10;7.87;;;;;;;3.72;95.70;96315.38;1052731;28;20032;-62
2021/05/08 01:07:04;;;;;;;11.68;7.78;;;;;;;3.70;95.56;96309.53;1052734;28;20063;-62
2021/05/08 01:07:38;;;;;;;12.97;7.43;;;;;;;3.70;95.29;96312.97;1052714;28;20028;-62
2021/05/08 01:08:08;;;;;;;11.07;7.55;;;;;;;3.71;95.52;96309.28;1052402;28;20026;-62
2021/05/08 01:08:39;;;;;;;10.90;7.30;;;;;;;3.68;95.57;96311.56;1052630;28;20031;-62
2021/05/08 01:09:09;;;;;;;13.63;7.97;;;;;;;3.65;95.02;96313.63;1052395;28;20020;-62
2021/05/08 01:09:40;;;;;;;10.47;8.07;;;;;;;3.61;95.48;96316.91;1048261;28;20024;-62
2021/05/08 01:10:12;;;;;;;14.93;7.83;;;;;;;3.58;95.09;96312.88;1043928;28;20024;-62
2021/05/08 01:10:42;;;;;;;10.68;7.25;;;;;;;3.58;95.53;96315.53;1044305;28;20104;-62
2021/05/08 01:11:13;;;;;;;11.83;7.67;;;;;;;3.57;95.79;96318.38;1044198;28;20493;-63
2021/05/08 01:11:43;;;;;;;11.57;7.50;;;;;;;3.53;96.00;96320.66;1044482;28;20027;-62
2021/05/08 01:12:14;;;;;;;11.37;7.13;;;;;;;3.56;96.23;96322.03;1048092;28;20259;-62
2021/05/08 01:12:44;;;;;;;12.00;8.00;;;;;;;3.53;95.75;96318.00;1040131;28;20037;-62
2021/05/08 01:13:15;;;;;;;10.00;7.20;;;;;;;3.57;95.91;96321.00;1035893;28;20391;-62
2021/05/08 01:13:45;;;;;;;11.73;7.43;;;;;;;3.58;96.09;96315.53;1031703;28;20026;-62
2021/05/08 01:14:17;;;;;;;13.47;7.47;;;;;;;3.54;96.16;96322.28;1039528;28;20418;-62
2021/05/08 01:14:48;;;;;;;11.43;7.47;;;;;;;3.53;96.24;96312.72;1040116;28;20401;-62
2021/05/08 01:15:18;;;;;;;10.05;7.28;;;;;;;3.57;96.59;96321.00;1044073;28;20016;-62
2021/05/08 01:15:49;;;;;;;13.70;7.47;;;;;;;3.58;96.41;96315.53;1044460;28;20046;-62
2021/05/08 01:16:19;;;;;;;12.33;8.00;;;;;;;3.53;97.16;96325.94;1044332;28;20031;-62
2021/05/08 01:16:50;;;;;;;12.40;7.53;;;;;;;3.54;97.42;96322.28;1048181;28;20035;-62
2021/05/08 01:17:21;;;;;;;14.87;7.80;;;;;;;3.53;97.33;96325.09;1040035;28;20013;-62
2021/05/08 01:17:51;;;;;;;11.97;8.07;;;;;;;3.56;97.01;96327.34;1036172;28;20491;-62
2021/05/08 01:18:21;;;;;;;13.93;8.00;;;;;;;3.59;96.06;96326.91;1039964;28;20035;-62
2021/05/08 01:18:54;;;;;;;14.23;8.20;;;;;;;3.58;95.80;96331.38;1040222;28;20437;-62
2021/05/08 01:19:25;;;;;;;13.80;8.30;;;;;;;3.58;95.64;96326.09;1048556;28;20023;-62
2021/05/08 01:19:55;;;;;;;9.63;7.63;;;;;;;3.55;96.33;96321.25;1044480;28;20028;-62
2021/05/08 01:20:26;;;;;;;12.90;7.50;;;;;;;3.55;96.03;96318.59;1044013;28;20021;-62
2021/05/08 01:20:56;;;;;;;12.17;8.07;;;;;;;3.52;95.90;96321.66;1044016;28;20024;-62
2021/05/08 01:21:26;;;;;;;11.87;8.30;;;;;;;3.48;96.03;96320.50;1044139;28;20024;-62
2021/05/08 01:21:57;;;;;;;11.80;7.47;;;;;;;3.51;96.19;96319.25;1052199;28;20070;-63
2021/05/08 01:22:27;;;;;;;9.83;7.60;;;;;;;3.47;96.26;96324.16;1052654;28;20504;-62
2021/05/08 01:22:58;;;;;;;10.83;7.40;;;;;;;3.51;96.01;96319.25;1052520;28;20019;-62
2021/05/08 01:23:28;;;;;;;13.53;8.80;;;;;;;3.51;95.51;96322.69;1052708;28;20073;-62
2021/05/08 01:23:59;;;;;;;11.30;7.83;;;;;;;3.47;95.67;96321.50;1052588;28;20012;-62
2021/05/08 01:24:29;;;;;;;12.13;7.87;;;;;;;3.45;96.02;96320.13;1052619;28;20023;-62
2021/05/08 01:25:00;;;;;;;11.33;7.60;;;;;;;3.42;95.67;96317.91;1052615;28;20015;-62
2021/05/08 01:25:30;;;;;;;15.23;8.53;;;;;;;3.43;96.10;96320.34;1052644;28;20456;-62
2021/05/08 01:26:01;;;;;;;13.27;8.17;;;;;;;3.46;96.23;96321.72;1052382;28;20016;-63
2021/05/08 01:26:31;;;;;;;15.93;8.43;;;;;;;3.47;96.01;96316.22;1052711;28;20016;-65
2021/05/08 01:27:02;;;;;;;14.77;8.47;;;;;;;3.48;96.22;96319.66;1048020;28;20474;-63
2021/05/08 01:27:32;;;;;;;15.67;8.93;;;;;;;3.45;95.87;96317.47;1048211;28;20099;-63
2021/05/08 01:28:03;;;;;;;14.23;8.70;;;;;;;3.45;95.93;96323.56;1048151;28;20038;-63
2021/05/08 01:28:33;;;;;;;10.97;8.23;;;;;;;3.44;96.12;96318.50;1044200;28;20086;-63
2021/05/08 01:29:04;;;;;;;11.70;8.03;;;;;;;3.43;96.19;96320.34;1052175;28;20027;-63
2021/05/08 01:29:34;;;;;;;13.50;8.45;;;;;;;3.43;96.57;96322.97;1052327;28;20100;-63
2021/05/08 01:30:06;;;;;;;12.23;8.17;;;;;;;3.45;96.76;96320.13;1052382;28;20077;-63
2021/05/08 01:30:37;;;;;;;16.48;7.75;;;;;;;3.47;96.67;96321.50;1056546;28;20024;-63
2021/05/08 01:31:10;;;;;;;11.18;8.10;;;;;;;3.43;96.70;96320.34;1056449;28;20023;-63
2021/05/08 01:31:41;;;;;;;12.52;7.88;;;;;;;3.45;96.92;96317.47;1056463;28;20414;-64
2021/05/08 01:32:11;;;;;;;11.80;8.30;;;;;;;3.48;96.87;96320.50;1056036;28;20114;-63
2021/05/08 01:32:41;;;;;;;11.03;8.00;;;;;;;3.46;96.71;96322.53;1052627;28;20409;-63
2021/05/08 01:33:12;;;;;;;11.80;7.70;;;;;;;3.49;96.50;96324.75;1052538;28;20341;-63
2021/05/08 01:33:43;;;;;;;12.10;7.60;;;;;;;3.48;96.54;96323.16;1052642;28;20485;-62
2021/05/08 01:34:13;;;;;;;11.88;8.00;;;;;;;3.49;96.87;96324.75;1052395;28;20023;-63
2021/05/08 01:34:44;;;;;;;13.43;7.50;;;;;;;3.52;96.69;96324.31;1052539;28;20028;-63
2021/05/08 01:35:14;;;;;;;11.80;6.93;;;;;;;3.45;95.73;96320.91;1052578;28;20022;-63
2021/05/08 01:35:45;;;;;;;14.63;7.93;;;;;;;3.45;96.19;96323.56;1052296;28;20095;-62
2021/05/08 01:36:15;;;;;;;11.13;7.90;;;;;;;3.46;96.26;96316.44;1052346;28;20024;-62
2021/05/08 01:36:46;;;;;;;13.97;7.93;;;;;;;3.51;96.21;96322.69;1052347;28;20016;-62
2021/05/08 01:37:16;;;;;;;10.87;7.37;;;;;;;3.51;95.59;96330.63;1048098;28;20016;-62
2021/05/08 01:37:46;;;;;;;11.17;6.97;;;;;;;3.53;95.87;96323.31;1048080;28;20016;-62
2021/05/08 01:38:17;;;;;;;12.77;7.50;;;;;;;3.48;95.82;96330.22;1048168;28;20012;-62
2021/05/08 01:38:48;;;;;;;9.95;7.15;;;;;;;3.48;95.71;96323.16;1048264;28;20044;-62
2021/05/08 01:39:18;;;;;;;13.33;7.80;;;;;;;3.47;95.47;96329.44;1048280;28;20054;-62
2021/05/08 01:39:49;;;;;;;11.30;7.10;;;;;;;3.46;95.15;96324.38;1052339;28;20023;-62
2021/05/08 01:40:41;;;;;;;12.40;6.90;;;;;;;3.45;95.67;96331.50;1052340;28;20028;-62
2021/05/08 01:41:11;;;;;;;11.75;6.97;;;;;;;3.40;95.84;96320.75;1050832;28;20103;-63
2021/05/08 01:41:43;;;;;;;15.83;7.97;;;;;;;3.43;96.04;96317.69;1052286;28;20032;-63
2021/05/08 01:42:14;;;;;;;11.00;7.05;;;;;;;3.44;95.88;96326.44;1052394;28;20034;-63
2021/05/08 01:42:47;;;;;;;11.27;7.50;;;;;;;3.43;95.40;96325.63;1052505;28;20036;-63
2021/05/08 01:43:18;;;;;;;12.88;7.40;;;;;;;3.44;95.64;96321.94;1052565;28;20016;-63
2021/05/08 01:43:48;;;;;;;12.03;7.57;;;;;;;3.41;95.89;96321.56;1052623;28;20020;-62
2021/05/08 01:44:19;;;;;;;10.27;7.17;;;;;;;3.40;95.74;96323.41;1052505;28;20023;-62
2021/05/08 01:44:49;;;;;;;14.03;7.50;;;;;;;3.38;95.69;96314.91;1052328;28;20020;-63
2021/05/08 01:45:21;;;;;;;10.70;6.97;;;;;;;3.30;96.08;96328.38;1052230;28;20012;-62
2021/05/08 01:46:28;;;;;;;12.82;7.65;;;;;;;3.26;96.31;96325.34;1052124;28;20468;-63
2021/05/08 01:47:55;;;;;;;12.27;7.45;;;;;;;3.25;96.21;96325.56;1052520;28;20143;-62
2021/05/08 01:57:01;;;;;;;9.50;6.93;;;;;;;2.78;98.61;96317.97;1052603;28;20145;-62
2021/05/08 01:57:31;;;;;;;12.43;7.40;;;;;;;2.79;98.56;96316.94;1052615;28;20371;-62
2021/05/08 01:58:02;;;;;;;12.60;7.47;;;;;;;2.82;98.47;96313.88;1052208;28;20153;-62
2021/05/08 01:58:33;;;;;;;11.63;7.27;;;;;;;2.77;98.84;96324.28;1052320;28;20477;-62
2021/05/08 01:59:03;;;;;;;11.77;7.65;;;;;;;2.73;98.92;96317.78;1054163;28;20075;-62
2021/05/08 01:59:34;;;;;;;12.27;7.63;;;;;;;2.73;99.12;96325.72;1054084;28;20031;-62
2021/05/08 02:00:10;;;;;;;11.47;7.20;;;;;;;2.75;98.98;96325.50;1054588;28;20043;-63
2021/05/08 02:00:42;;;;;;;13.57;7.70;;;;;;;2.79;98.99;96311.66;1054895;28;20058;-63
2021/05/08 02:01:13;;;;;;;13.35;7.43;;;;;;;2.83;98.80;96319.97;1053974;28;20012;-62
2021/05/08 02:01:43;;;;;;;13.40;8.10;;;;;;;2.80;98.67;96310.63;1052666;28;20020;-62
2021/05/08 02:02:14;;;;;;;9.80;7.50;;;;;;;2.85;98.63;96315.28;1052352;28;20065;-62
2021/05/08 02:02:45;;;;;;;11.43;7.23;;;;;;;2.87;97.54;96321.16;1052465;28;20070;-62
2021/05/08 02:03:15;;;;;;;11.57;7.22;;;;;;;2.84;98.17;96314.47;1052531;28;20020;-62
2021/05/08 02:03:46;;;;;;;15.40;7.43;;;;;;;2.90;98.14;96318.09;1052537;28;20119;-62
2021/05/08 02:04:16;;;;;;;13.20;7.43;;;;;;;2.87;98.04;96313.25;1052536;28;20465;-62
2021/05/08 02:04:47;;;;;;;12.20;7.30;;;;;;;2.93;97.74;96316.88;1052623;28;20032;-64
2021/05/08 02:05:19;;;;;;;11.25;7.55;;;;;;;2.94;97.82;96314.00;1052599;28;20143;-64
2021/05/08 02:05:50;;;;;;;11.93;7.15;;;;;;;2.94;97.79;96316.63;1052275;28;20412;-62
2021/05/08 02:06:20;;;;;;;11.43;7.72;;;;;;;2.93;97.95;96312.41;1052217;28;20020;-62
2021/05/08 02:06:52;;;;;;;12.80;7.30;;;;;;;2.98;97.57;96304.63;1052218;28;20074;-62
2021/05/08 02:07:22;;;;;;;10.75;7.10;;;;;;;2.98;97.61;96312.56;1044370;28;20045;-62
2021/05/08 02:07:53;;;;;;;12.80;7.83;;;;;;;2.99;96.86;96306.25;1048028;28;20445;-62
2021/05/08 02:08:23;;;;;;;11.63;7.13;;;;;;;2.98;97.16;96304.63;1047883;28;20009;-62
2021/05/08 02:08:54;;;;;;;12.00;7.30;;;;;;;2.94;96.92;96311.38;1048202;28;20032;-62
2021/05/08 02:09:24;;;;;;;10.13;7.03;;;;;;;2.97;97.13;96308.31;1052559;28;20484;-62
2021/05/08 02:09:54;;;;;;;12.03;7.40;;;;;;;3.00;97.20;96313.16;1052567;28;20028;-62
2021/05/08 02:10:25;;;;;;;11.17;7.27;;;;;;;3.02;96.96;96310.28;1052526;28;20012;-62
2021/05/08 02:10:55;;;;;;;12.10;7.93;;;;;;;3.04;97.21;96311.69;1052350;28;20016;-62
2021/05/08 02:11:26;;;;;;;11.60;7.63;;;;;;;3.04;97.16;96298.50;1052560;28;20008;-62
2021/05/08 02:11:56;;;;;;;11.23;6.70;;;;;;;3.05;97.03;96304.56;1052559;28;20036;-62
2021/05/08 02:12:31;;;;;;;11.30;7.27;;;;;;;3.05;96.68;96304.56;1052478;28;20015;-62
2021/05/08 02:13:04;;;;;;;10.77;7.22;;;;;;;3.06;96.62;96304.34;1052495;28;20099;-62
2021/05/08 02:13:35;;;;;;;11.93;7.22;;;;;;;3.07;96.20;96302.53;1052217;28;20040;-62
2021/05/08 02:14:05;;;;;;;9.53;6.87;;;;;;;3.09;96.33;96300.50;1052446;28;20380;-62
2021/05/08 02:14:36;;;;;;;13.73;7.23;;;;;;;3.09;96.68;96296.00;1052428;28;20020;-62
2021/05/08 02:15:10;;;;;;;10.43;7.10;;;;;;;3.10;96.46;96302.91;1052579;28;20149;-62
2021/05/08 02:15:41;;;;;;;12.85;7.07;;;;;;;3.08;96.42;96302.31;1052498;28;20032;-62
2021/05/08 02:16:11;;;;;;;11.23;7.77;;;;;;;3.09;96.43;96301.28;1052486;28;20032;-62
2021/05/08 02:16:41;;;;;;;14.90;7.40;;;;;;;3.11;96.49;96301.88;1052460;28;20027;-62
2021/05/08 02:17:12;;;;;;;12.93;7.83;;;;;;;3.14;96.18;96298.00;1052534;28;20358;-64
2021/05/08 02:17:42;;;;;;;14.23;7.03;;;;;;;3.15;96.88;96298.81;1052554;28;20424;-62
2021/05/08 02:18:13;;;;;;;12.13;6.87;;;;;;;3.15;96.21;96304.09;1052554;28;20032;-63
2021/05/08 02:18:43;;;;;;;14.73;7.73;;;;;;;3.16;96.16;96292.50;1052315;28;20039;-63
2021/05/08 02:19:13;;;;;;;10.37;6.80;;;;;;;3.12;96.50;96295.59;1052421;28;20020;-63
2021/05/08 02:19:44;;;;;;;10.27;7.07;;;;;;;3.15;96.55;96298.81;1052542;28;20027;-62
2021/05/08 02:20:22;;;;;;;11.13;7.13;;;;;;;3.15;96.76;96301.47;1052621;28;20032;-63
2021/05/08 02:20:52;;;;;;;9.98;6.95;;;;;;;3.07;96.90;96294.59;1052543;28;20092;-63
2021/05/08 02:21:23;;;;;;;11.60;6.97;;;;;;;3.11;96.84;96296.59;1052577;28;20105;-63
2021/05/08 02:21:54;;;;;;;11.43;7.13;;;;;;;3.11;96.20;96301.88;1052212;28;20424;-63
2021/05/08 02:22:25;;;;;;;11.07;7.32;;;;;;;3.07;96.87;96298.06;1052266;28;20373;-63
2021/05/08 02:22:59;;;;;;;9.83;6.87;;;;;;;3.10;96.44;96296.81;1047809;28;20032;-63
2021/05/08 02:23:30;;;;;;;12.77;8.02;;;;;;;3.08;96.73;96310.25;1048696;28;20024;-63
2021/05/08 02:24:00;;;;;;;11.87;7.30;;;;;;;3.11;96.58;96298.44;1051840;28;20039;-62
2021/05/08 02:24:31;;;;;;;10.53;7.27;;;;;;;3.12;96.89;96308.81;1052293;28;20024;-63
2021/05/08 02:25:02;;;;;;;11.20;6.87;;;;;;;3.14;97.26;96300.66;1052436;28;20042;-63
2021/05/08 02:25:33;;;;;;;10.38;6.63;;;;;;;3.12;96.85;96310.59;1053081;28;20110;-63
2021/05/08 02:26:03;;;;;;;11.33;7.70;;;;;;;3.13;96.98;96299.03;1053211;28;20035;-63
2021/05/08 02:26:34;;;;;;;10.63;6.30;;;;;;;3.12;96.59;96306.16;1053412;28;20035;-63
2021/05/08 02:27:04;;;;;;;11.40;6.97;;;;;;;3.13;96.27;96305.13;1053241;28;20032;-64
2021/05/08 02:27:35;;;;;;;12.23;8.00;;;;;;;3.13;96.51;96302.50;1053422;28;20027;-64
2021/05/08 02:28:05;;;;;;;11.13;7.33;;;;;;;3.10;96.78;96300.28;1053279;28;20028;-65
2021/05/08 02:28:36;;;;;;;10.57;8.17;;;;;;;3.12;97.02;96295.59;1053367;28;20020;-64
2021/05/08 02:29:06;;;;;;;11.53;7.80;;;;;;;3.18;96.89;96299.22;1053304;28;20045;-64
2021/05/08 02:29:37;;;;;;;10.23;7.03;;;;;;;3.15;96.25;96302.28;1053356;28;20035;-64
2021/05/08 02:30:09;;;;;;;12.03;7.47;;;;;;;3.14;96.71;96298.00;1053332;28;20415;-64
2021/05/08 02:30:40;;;;;;;10.98;7.22;;;;;;;3.16;96.50;96295.16;1052981;28;20032;-64
2021/05/08 02:31:11;;;;;;;12.73;7.40;;;;;;;3.14;96.71;96300.66;1052849;28;20027;-64
2021/05/08 02:31:41;;;;;;;10.47;6.80;;;;;;;3.13;96.50;96296.41;1052777;28;20040;-64
2021/05/08 02:32:12;;;;;;;12.00;7.17;;;;;;;3.13;96.41;96293.75;1052971;28;20016;-65
2021/05/08 02:32:42;;;;;;;10.83;7.20;;;;;;;3.13;96.82;96291.13;1053309;28;20078;-64
2021/05/08 02:33:13;;;;;;;9.80;6.73;;;;;;;3.14;96.69;96298.00;1053264;28;20058;-64
2021/05/08 02:33:43;;;;;;;12.10;7.53;;;;;;;3.09;97.08;96295.22;1053206;28;20161;-64
2021/05/08 02:34:14;;;;;;;12.20;7.50;;;;;;;3.08;97.12;96299.69;1053257;28;20016;-64
2021/05/08 02:34:44;;;;;;;13.67;7.47;;;;;;;3.09;97.39;96292.56;1053325;28;20028;-64
2021/05/08 02:35:17;;;;;;;13.07;7.13;;;;;;;3.08;96.96;96293.59;1053407;28;20027;-64
2021/05/08 02:35:47;;;;;;;11.73;7.32;;;;;;;3.10;96.63;96294.19;1053283;28;20039;-64